createdAt,value
2022-09-22T00:01:01.782Z,4.43
2022-09-22T00:03:36.154Z,4.53
2022-09-22T00:06:08.549Z,6.23
2022-09-22T00:08:37.065Z,4.80
2022-09-22T00:11:16.761Z,5.13
2022-09-22T00:13:45.654Z,4.00
2022-09-22T00:16:13.702Z,4.67
2022-09-22T00:18:40.141Z,3.63
2022-09-22T00:21:09.360Z,7.90
2022-09-22T00:23:36.816Z,5.20
2022-09-22T00:26:10.585Z,6.70
2022-09-22T00:28:38.840Z,4.50
2022-09-22T00:31:13.489Z,6.33
2022-09-22T00:33:43.238Z,7.87
2022-09-22T00:36:10.201Z,4.43
2022-09-22T00:38:38.598Z,4.13
2022-09-22T00:41:06.024Z,4.40
2022-09-22T00:43:36.426Z,3.87
2022-09-22T00:46:14.537Z,5.80
2022-09-22T00:48:46.829Z,5.00
2022-09-22T00:51:16.645Z,4.90
2022-09-22T00:53:43.550Z,6.67
2022-09-22T00:56:17.994Z,5.30
2022-09-22T00:58:56.901Z,4.30
2022-09-22T01:01:23.376Z,4.23
2022-09-22T01:03:50.748Z,4.80
2022-09-22T01:06:22.871Z,3.60
2022-09-22T01:08:50.372Z,6.73
2022-09-22T01:11:20.535Z,3.90
2022-09-22T01:14:01.318Z,4.90
2022-09-22T01:16:43.423Z,6.30
2022-09-22T01:19:33.998Z,5.37
2022-09-22T01:22:32.563Z,4.30
2022-09-22T01:25:29.718Z,4.60
2022-09-22T01:28:33.834Z,5.43
2022-09-22T01:31:11.473Z,3.83
2022-09-22T01:33:45.699Z,3.47
2022-09-22T01:36:25.687Z,4.50
2022-09-22T01:39:37.911Z,4.13
2022-09-22T01:42:18.158Z,3.80
2022-09-22T01:45:03.091Z,3.93
2022-09-22T01:47:42.756Z,3.93
2022-09-22T01:50:23.185Z,4.03
2022-09-22T01:52:52.605Z,5.63
2022-09-22T01:55:24.991Z,4.23
2022-09-22T01:58:05.610Z,6.90
2022-09-22T02:00:32.662Z,3.40
2022-09-22T02:03:27.546Z,3.33
2022-09-22T02:06:04.119Z,4.03
2022-09-22T02:08:37.565Z,4.60
2022-09-22T02:11:10.765Z,7.20
2022-09-22T02:13:37.718Z,3.43
2022-09-22T02:16:07.010Z,4.27
2022-09-22T02:18:40.638Z,7.23
2022-09-22T02:21:07.109Z,3.37
2022-09-22T02:23:34.225Z,3.43
2022-09-22T02:26:02.815Z,3.23
2022-09-22T02:28:32.507Z,3.23
2022-09-22T02:31:19.148Z,3.50
2022-09-22T02:33:46.300Z,3.47
2022-09-22T02:36:24.983Z,5.10
2022-09-22T02:39:03.912Z,2.87
2022-09-22T02:41:51.180Z,4.20
2022-09-22T02:44:23.849Z,4.07
2022-09-22T02:46:57.633Z,3.47
2022-09-22T02:49:26.011Z,4.40
2022-09-22T02:51:53.038Z,6.13
2022-09-22T02:54:19.377Z,3.63
2022-09-22T02:56:46.042Z,3.70
2022-09-22T02:59:12.585Z,3.03
2022-09-22T03:01:39.056Z,4.53
2022-09-22T03:04:05.838Z,3.13
2022-09-22T03:06:32.400Z,3.33
2022-09-22T03:08:58.748Z,3.73
2022-09-22T03:11:27.074Z,4.40
2022-09-22T03:13:53.981Z,4.60
2022-09-22T03:16:20.458Z,3.13
2022-09-22T03:18:46.973Z,2.90
2022-09-22T03:21:13.303Z,6.63
2022-09-22T03:23:39.653Z,3.33
2022-09-22T03:26:05.998Z,3.77
2022-09-22T03:28:32.348Z,6.07
2022-09-22T03:30:58.738Z,3.20
2022-09-22T03:33:25.180Z,3.03
2022-09-22T03:35:51.595Z,3.63
2022-09-22T03:38:17.955Z,3.60
2022-09-22T03:40:52.300Z,6.10
2022-09-22T03:43:19.109Z,3.40
2022-09-22T03:45:45.590Z,3.40
2022-09-22T03:48:12.133Z,4.50
2022-09-22T03:50:38.438Z,3.30
2022-09-22T03:53:04.756Z,4.90
2022-09-22T03:55:31.069Z,4.50
2022-09-22T03:57:57.407Z,6.37
2022-09-22T04:00:23.750Z,4.63
2022-09-22T04:02:50.138Z,3.50
2022-09-22T04:05:16.566Z,2.90
2022-09-22T04:07:42.989Z,3.50
2022-09-22T04:10:09.482Z,3.03
2022-09-22T04:12:37.175Z,7.40
2022-09-22T04:15:04.398Z,3.27
2022-09-22T04:17:30.769Z,6.00
2022-09-22T04:19:57.254Z,6.03
2022-09-22T04:22:23.818Z,5.33
2022-09-22T04:24:50.223Z,7.30
2022-09-22T04:27:20.852Z,7.37
2022-09-22T04:29:47.918Z,3.70
2022-09-22T04:32:14.477Z,3.70
2022-09-22T04:34:40.938Z,6.20
2022-09-22T04:37:07.319Z,3.50
2022-09-22T04:39:33.978Z,6.20
2022-09-22T04:42:00.375Z,6.43
2022-09-22T04:44:26.723Z,5.80
2022-09-22T04:46:53.308Z,3.40
2022-09-22T04:49:19.686Z,3.60
2022-09-22T04:51:46.189Z,3.20
2022-09-22T04:54:14.703Z,4.30
2022-09-22T04:56:44.354Z,5.20
2022-09-22T04:59:11.772Z,3.90
2022-09-22T05:01:38.249Z,3.67
2022-09-22T05:04:04.745Z,4.23
2022-09-22T05:06:31.170Z,3.87
2022-09-22T05:08:57.718Z,5.27
2022-09-22T05:11:24.231Z,3.77
2022-09-22T05:13:50.865Z,4.67
2022-09-22T05:16:18.403Z,2.70
2022-09-22T05:18:44.827Z,3.53
2022-09-22T05:21:11.217Z,3.90
2022-09-22T05:23:39.338Z,4.63
2022-09-22T05:26:06.638Z,5.40
2022-09-22T05:28:33.074Z,3.80
2022-09-22T05:30:59.453Z,4.07
2022-09-22T05:33:25.792Z,5.47
2022-09-22T05:35:52.166Z,4.17
2022-09-22T05:38:18.490Z,4.87
2022-09-22T05:40:47.133Z,4.70
2022-09-22T05:43:13.910Z,3.60
2022-09-22T05:45:40.354Z,3.23
2022-09-22T05:48:06.727Z,3.80
2022-09-22T05:50:33.078Z,4.27
2022-09-22T05:53:17.549Z,4.43
2022-09-22T05:55:44.449Z,3.57
2022-09-22T05:58:11.901Z,6.50
2022-09-22T06:00:39.846Z,6.43
2022-09-22T06:03:06.389Z,3.70
2022-09-22T06:05:34.960Z,4.40
2022-09-22T06:08:06.253Z,4.07
2022-09-22T06:10:37.698Z,3.57
2022-09-22T06:13:09.349Z,4.73
2022-09-22T06:15:37.619Z,6.10
2022-09-22T06:18:07.434Z,4.77
2022-09-22T06:20:34.972Z,4.10
2022-09-22T06:23:01.366Z,5.30
2022-09-22T06:25:30.407Z,4.90
2022-09-22T06:28:00.641Z,3.93
2022-09-22T06:30:27.071Z,5.53
2022-09-22T06:32:55.171Z,5.50
2022-09-22T06:35:21.801Z,5.10
2022-09-22T06:37:51.352Z,3.70
2022-09-22T06:40:17.901Z,5.00
2022-09-22T06:42:44.716Z,6.77
2022-09-22T06:45:11.049Z,4.67
2022-09-22T06:47:38.510Z,8.60
2022-09-22T06:50:05.856Z,4.27
2022-09-22T06:52:35.034Z,4.30
2022-09-22T06:55:03.654Z,3.80
2022-09-22T06:57:32.998Z,8.83
2022-09-22T07:00:01.018Z,8.40
2022-09-22T07:02:29.506Z,7.70
2022-09-22T07:04:58.972Z,4.70
2022-09-22T07:07:31.915Z,4.93
2022-09-22T07:09:58.453Z,4.80
2022-09-22T07:12:25.780Z,5.43
2022-09-22T07:14:53.305Z,7.57
2022-09-22T07:17:23.593Z,7.93
2022-09-22T07:19:51.063Z,4.20
2022-09-22T07:22:19.105Z,6.70
2022-09-22T07:24:45.716Z,6.30
2022-09-22T07:27:14.179Z,7.70
2022-09-22T07:29:40.531Z,4.97
2022-09-22T07:32:06.989Z,9.70
2022-09-22T07:34:33.397Z,6.13
2022-09-22T07:36:59.738Z,6.57
2022-09-22T07:39:26.158Z,6.40
2022-09-22T07:41:52.591Z,5.40
2022-09-22T07:44:40.970Z,6.13
2022-09-22T07:47:10.065Z,5.80
2022-09-22T07:49:36.375Z,7.23
2022-09-22T07:52:02.864Z,6.73
2022-09-22T07:54:29.175Z,5.27
2022-09-22T07:56:58.517Z,5.87
2022-09-22T07:59:26.113Z,6.00
2022-09-22T08:01:53.006Z,5.93
2022-09-22T08:04:22.821Z,7.07
2022-09-22T08:06:55.265Z,7.10
2022-09-22T08:09:22.881Z,8.30
2022-09-22T08:11:50.041Z,5.40
2022-09-22T08:14:17.381Z,6.30
2022-09-22T08:16:44.289Z,7.93
2022-09-22T08:19:14.577Z,7.60
2022-09-22T08:21:49.234Z,9.53
2022-09-22T08:24:21.311Z,6.00
2022-09-22T08:26:50.304Z,8.17
2022-09-22T08:29:16.665Z,8.10
2022-09-22T08:31:45.307Z,6.27
2022-09-22T08:34:14.025Z,5.57
2022-09-22T08:36:42.574Z,5.10
2022-09-22T08:39:08.891Z,4.50
2022-09-22T08:41:41.423Z,5.03
2022-09-22T08:44:08.695Z,5.43
2022-09-22T08:46:38.943Z,4.00
2022-09-22T08:49:37.076Z,12.50
2022-09-22T08:52:15.651Z,5.50
2022-09-22T08:54:44.237Z,6.30
2022-09-22T08:57:34.695Z,4.23
2022-09-22T09:00:06.763Z,6.70
2022-09-22T09:02:42.450Z,4.67
2022-09-22T09:05:36.734Z,4.60
2022-09-22T09:08:32.322Z,7.70
2022-09-22T09:11:30.301Z,3.53
2022-09-22T09:14:25.390Z,4.07
2022-09-22T09:16:59.430Z,3.00
2022-09-22T09:19:38.651Z,3.53
2022-09-22T09:22:15.394Z,5.73
2022-09-22T09:27:39.630Z,3.37
2022-09-22T09:30:11.439Z,4.00
2022-09-22T09:32:53.049Z,3.60
2022-09-22T09:35:39.613Z,2.53
2022-09-22T09:38:14.029Z,2.00
2022-09-22T09:40:41.145Z,3.17
2022-09-22T09:43:08.162Z,3.03
2022-09-22T09:45:52.733Z,7.17
2022-09-22T09:48:41.994Z,3.50
2022-09-22T09:51:12.198Z,2.60
2022-09-22T09:53:46.750Z,2.97
2022-09-22T09:56:25.479Z,2.20
2022-09-22T09:59:18.457Z,2.73
2022-09-22T10:01:47.365Z,2.40
2022-09-22T10:04:28.366Z,2.20
2022-09-22T10:07:09.398Z,2.90
2022-09-22T10:09:35.890Z,2.90
2022-09-22T10:12:03.834Z,1.90
2022-09-22T10:14:33.803Z,3.90
2022-09-22T10:17:00.634Z,2.23
2022-09-22T10:19:29.967Z,2.20
2022-09-22T10:22:15.933Z,3.20
2022-09-22T10:24:53.518Z,4.20
2022-09-22T10:27:24.966Z,2.97
2022-09-22T10:30:11.397Z,1.70
2022-09-22T10:32:38.423Z,2.43
2022-09-22T10:35:27.954Z,3.30
2022-09-22T10:37:59.814Z,2.90
2022-09-22T10:40:27.791Z,2.50
2022-09-22T10:42:57.519Z,2.47
2022-09-22T10:45:38.649Z,2.03
2022-09-22T10:48:15.465Z,2.73
2022-09-22T10:50:56.177Z,3.63
2022-09-22T10:53:39.470Z,2.13
2022-09-22T10:56:20.717Z,2.37
2022-09-22T10:59:14.925Z,2.63
2022-09-22T11:01:47.471Z,2.27
2022-09-22T11:04:19.647Z,2.10
2022-09-22T11:07:35.916Z,3.40
2022-09-22T11:10:36.337Z,1.83
2022-09-22T11:13:16.420Z,2.33
2022-09-22T11:16:18.354Z,3.20
2022-09-22T11:19:04.118Z,3.50
2022-09-22T11:21:50.741Z,3.30
2022-09-22T11:24:47.546Z,2.07
2022-09-22T11:27:28.936Z,2.63
2022-09-22T11:30:03.617Z,2.00
2022-09-22T11:33:02.141Z,1.97
2022-09-22T11:36:20.110Z,2.90
2022-09-22T11:39:03.969Z,2.37
2022-09-22T11:41:31.262Z,2.07
2022-09-22T11:44:14.058Z,2.17
2022-09-22T11:46:43.424Z,2.33
2022-09-22T11:49:51.088Z,2.67
2022-09-22T11:52:43.189Z,2.40
2022-09-22T11:55:15.778Z,3.00
2022-09-22T11:57:46.233Z,2.10
2022-09-22T12:00:16.342Z,4.63
2022-09-22T12:03:02.624Z,2.37
2022-09-22T12:05:41.614Z,2.40
2022-09-22T12:08:13.805Z,2.33
2022-09-22T12:10:47.001Z,2.57
2022-09-22T12:13:17.605Z,2.63
2022-09-22T12:16:23.010Z,2.27
2022-09-22T12:18:55.762Z,4.20
2022-09-22T12:21:56.066Z,5.40
2022-09-22T12:24:22.967Z,2.20
2022-09-22T12:26:50.850Z,2.50
2022-09-22T12:29:17.132Z,2.87
2022-09-22T12:31:48.210Z,2.73
2022-09-22T12:34:21.704Z,2.70
2022-09-22T12:36:51.116Z,2.40
2022-09-22T12:39:21.886Z,2.33
2022-09-22T12:41:52.254Z,2.40
2022-09-22T12:44:24.977Z,2.73
2022-09-22T12:46:57.408Z,2.60
2022-09-22T12:49:23.935Z,3.27
2022-09-22T12:51:51.157Z,2.70
2022-09-22T12:54:24.475Z,2.30
2022-09-22T12:57:00.820Z,2.57
2022-09-22T12:59:36.472Z,4.73
2022-09-22T13:02:15.836Z,3.30
2022-09-22T13:05:03.511Z,2.40
2022-09-22T13:07:43.962Z,3.37
2022-09-22T13:10:22.663Z,2.90
2022-09-22T13:13:00.917Z,3.87
2022-09-22T13:15:51.119Z,2.83
2022-09-22T13:18:35.642Z,2.60
2022-09-22T13:21:21.225Z,2.63
2022-09-22T13:23:53.708Z,2.80
2022-09-22T13:26:55.277Z,2.10
2022-09-22T13:29:21.918Z,2.90
2022-09-22T13:31:51.123Z,2.73
2022-09-22T13:34:35.271Z,2.97
2022-09-22T13:37:11.018Z,3.53
2022-09-22T13:39:46.396Z,4.37
2022-09-22T13:42:32.287Z,2.77
2022-09-22T13:45:16.591Z,2.97
2022-09-22T13:47:43.564Z,2.70
2022-09-22T13:50:20.081Z,2.63
2022-09-22T13:52:51.733Z,2.30
2022-09-22T13:55:33.138Z,2.20
2022-09-22T13:58:00.476Z,2.63
2022-09-22T14:00:41.375Z,3.37
2022-09-22T14:03:19.698Z,4.27
2022-09-22T14:05:53.653Z,2.00
2022-09-22T14:08:27.947Z,1.87
2022-09-22T14:10:57.812Z,2.40
2022-09-22T14:13:40.698Z,2.67
2022-09-22T14:16:47.153Z,2.90
2022-09-22T14:19:29.188Z,2.00
2022-09-22T14:21:57.929Z,3.20
2022-09-22T14:24:25.454Z,4.53
2022-09-22T14:27:04.504Z,4.63
2022-09-22T14:29:38.870Z,6.07
2022-09-22T14:32:14.738Z,4.37
2022-09-22T14:34:47.529Z,2.30
2022-09-22T14:37:33.511Z,5.13
2022-09-22T14:40:05.244Z,3.20
2022-09-22T14:42:33.659Z,2.37
2022-09-22T14:45:09.205Z,2.20
2022-09-22T14:47:40.698Z,2.97
2022-09-22T14:50:20.461Z,2.47
2022-09-22T14:52:59.040Z,3.33
2022-09-22T14:55:29.030Z,3.83
2022-09-22T14:57:56.644Z,3.47
2022-09-22T15:00:41.920Z,1.87
2022-09-22T15:03:20.598Z,3.20
2022-09-22T15:05:47.886Z,2.13
2022-09-22T15:08:22.665Z,3.53
2022-09-22T15:10:59.517Z,2.20
2022-09-22T15:13:34.921Z,2.10
2022-09-22T15:16:01.586Z,2.17
2022-09-22T15:18:30.741Z,1.90
2022-09-22T15:21:02.808Z,2.63
2022-09-22T15:23:44.714Z,2.10
2022-09-22T15:26:22.809Z,2.40
2022-09-22T15:28:54.045Z,3.83
2022-09-22T15:31:26.475Z,2.97
2022-09-22T15:33:56.966Z,2.70
2022-09-22T15:36:25.582Z,2.27
2022-09-22T15:38:59.548Z,2.27
2022-09-22T15:41:26.167Z,2.40
2022-09-22T15:43:52.950Z,3.40
2022-09-22T15:46:29.170Z,2.93
2022-09-22T15:49:15.065Z,2.33
2022-09-22T15:51:41.407Z,2.13
2022-09-22T15:54:19.238Z,2.23
2022-09-22T15:56:47.933Z,5.60
2022-09-22T15:59:19.719Z,2.40
2022-09-22T16:01:46.504Z,3.47
2022-09-22T16:04:12.886Z,2.80
2022-09-22T16:06:42.491Z,2.70
2022-09-22T16:09:15.139Z,4.20
2022-09-22T16:11:41.541Z,2.73
2022-09-22T16:14:07.865Z,3.73
2022-09-22T16:16:35.674Z,3.03
2022-09-22T16:19:02.274Z,4.63
2022-09-22T16:21:33.177Z,2.90
2022-09-22T16:24:08.135Z,2.67
2022-09-22T16:26:37.048Z,2.40
2022-09-22T16:29:04.406Z,3.30
2022-09-22T16:31:31.316Z,2.43
2022-09-22T16:34:00.223Z,2.60
2022-09-22T16:36:28.974Z,2.20
2022-09-22T16:38:55.649Z,2.80
2022-09-22T16:41:24.549Z,2.20
2022-09-22T16:43:51.786Z,2.73
2022-09-22T16:46:28.422Z,2.93
2022-09-22T16:48:56.552Z,2.40
2022-09-22T16:51:22.905Z,5.00
2022-09-22T16:53:55.310Z,3.67
2022-09-22T16:56:24.122Z,4.73
2022-09-22T16:58:51.629Z,4.90
2022-09-22T17:01:19.987Z,2.50
2022-09-22T17:03:49.385Z,3.67
2022-09-22T17:06:18.149Z,6.10
2022-09-22T17:08:45.815Z,3.17
2022-09-22T17:11:14.163Z,3.03
2022-09-22T17:13:43.485Z,4.00
2022-09-22T17:16:25.237Z,4.03
2022-09-22T17:18:52.528Z,5.20
2022-09-22T17:21:21.795Z,5.83
2022-09-22T17:23:50.519Z,3.97
2022-09-22T17:26:18.283Z,5.37
2022-09-22T17:28:45.079Z,4.07
2022-09-22T17:31:11.729Z,5.50
2022-09-22T17:33:49.969Z,5.60
2022-09-22T17:36:20.314Z,6.97
2022-09-22T17:38:50.259Z,7.47
2022-09-22T17:41:21.816Z,6.03
2022-09-22T17:43:53.216Z,5.73
2022-09-22T17:46:20.407Z,3.90
2022-09-22T17:49:05.337Z,3.63
2022-09-22T17:51:53.042Z,3.40
2022-09-22T17:54:37.885Z,5.10
2022-09-22T17:57:05.370Z,4.57
2022-09-22T17:59:33.337Z,4.90
2022-09-22T18:02:00.792Z,6.70
2022-09-22T18:04:28.129Z,8.20
2022-09-22T18:06:54.469Z,8.00
2022-09-22T18:09:20.883Z,14.80
2022-09-22T18:11:48.154Z,26.20
2022-09-22T18:14:14.510Z,30.10
2022-09-22T18:16:42.241Z,25.20
2022-09-22T18:19:08.817Z,22.37
2022-09-22T18:21:39.282Z,14.17
2022-09-22T18:24:06.849Z,8.43
2022-09-22T18:26:38.233Z,10.00
2022-09-22T18:29:09.985Z,6.53
2022-09-22T18:31:38.114Z,4.50
2022-09-22T18:34:07.461Z,4.73
2022-09-22T18:36:34.829Z,4.23
2022-09-22T18:39:01.167Z,4.97
2022-09-22T18:41:28.486Z,6.13
2022-09-22T18:43:55.116Z,7.20
2022-09-22T18:46:21.963Z,5.37
2022-09-22T18:49:04.130Z,4.07
2022-09-22T18:51:50.286Z,5.07
2022-09-22T18:54:18.149Z,3.33
2022-09-22T18:56:46.045Z,3.63
2022-09-22T18:59:18.810Z,4.10
2022-09-22T19:01:46.148Z,4.13
2022-09-22T19:04:17.517Z,3.60
2022-09-22T19:07:03.456Z,5.20
2022-09-22T19:09:29.955Z,3.50
2022-09-22T19:11:56.490Z,5.63
2022-09-22T19:14:24.183Z,4.50
2022-09-22T19:16:51.287Z,3.70
2022-09-22T19:19:20.162Z,3.47
2022-09-22T19:21:50.108Z,4.70
2022-09-22T19:24:17.525Z,3.80
2022-09-22T19:26:44.286Z,8.23
2022-09-22T19:29:12.353Z,4.80
2022-09-22T19:31:41.967Z,4.30
2022-09-22T19:34:09.518Z,5.50
2022-09-22T19:36:36.846Z,4.63
2022-09-22T19:39:06.973Z,3.67
2022-09-22T19:41:36.155Z,6.87
2022-09-22T19:44:02.890Z,4.00
2022-09-22T19:46:30.248Z,3.27
2022-09-22T19:48:57.269Z,5.70
2022-09-22T19:51:24.428Z,4.60
2022-09-22T19:53:52.069Z,3.70
2022-09-22T19:56:20.889Z,4.13
2022-09-22T19:58:51.297Z,5.70
2022-09-22T20:01:31.976Z,3.90
2022-09-22T20:03:59.223Z,4.57
2022-09-22T20:06:28.490Z,3.80
2022-09-22T20:09:02.749Z,3.23
2022-09-22T20:11:34.763Z,5.13
2022-09-22T20:14:20.014Z,4.20
2022-09-22T20:17:03.051Z,2.83
2022-09-22T20:19:31.562Z,5.23
2022-09-22T20:22:18.646Z,6.90
2022-09-22T20:24:54.842Z,3.23
2022-09-22T20:27:26.873Z,4.23
2022-09-22T20:29:57.024Z,4.13
2022-09-22T20:32:28.456Z,3.97
2022-09-22T20:34:55.701Z,4.50
2022-09-22T20:37:23.417Z,5.83
2022-09-22T20:39:50.038Z,3.90
2022-09-22T20:42:17.446Z,5.67
2022-09-22T20:44:44.153Z,4.90
2022-09-22T20:47:15.648Z,3.87
2022-09-22T20:49:43.753Z,5.67
2022-09-22T20:52:15.566Z,4.43
2022-09-22T20:54:42.490Z,4.60
2022-09-22T20:57:09.301Z,5.87
2022-09-22T20:59:36.080Z,4.33
2022-09-22T21:02:02.465Z,3.60
2022-09-22T21:04:29.945Z,4.47
2022-09-22T21:06:57.930Z,3.77
2022-09-22T21:09:43.048Z,5.07
2022-09-22T21:12:09.841Z,4.63
2022-09-22T21:14:36.237Z,4.00
2022-09-22T21:17:06.718Z,3.40
2022-09-22T21:19:34.361Z,4.07
2022-09-22T21:22:00.834Z,3.47
2022-09-22T21:24:31.312Z,3.50
2022-09-22T21:26:58.328Z,3.57
2022-09-22T21:29:24.687Z,5.10
2022-09-22T21:31:51.423Z,7.90
2022-09-22T21:34:18.402Z,4.83
2022-09-22T21:36:45.177Z,4.70
2022-09-22T21:39:11.498Z,3.67
2022-09-22T21:41:37.858Z,4.33
2022-09-22T21:44:05.630Z,5.63
2022-09-22T21:46:33.213Z,3.80
2022-09-22T21:49:02.181Z,4.63
2022-09-22T21:51:34.170Z,5.00
2022-09-22T21:54:02.957Z,5.13
2022-09-22T21:56:30.123Z,4.17
2022-09-22T21:58:57.109Z,6.03
2022-09-22T22:01:29.077Z,4.73
2022-09-22T22:03:57.225Z,5.43
2022-09-22T22:06:39.966Z,5.37
2022-09-22T22:09:11.038Z,4.80
2022-09-22T22:11:39.658Z,4.60
2022-09-22T22:14:08.692Z,3.90
2022-09-22T22:16:38.660Z,4.53
2022-09-22T22:19:06.435Z,5.83
2022-09-22T22:21:33.295Z,5.43
2022-09-22T22:24:22.531Z,3.23
2022-09-22T22:26:51.691Z,5.17
2022-09-22T22:29:19.139Z,3.83
2022-09-22T22:31:47.385Z,3.93
2022-09-22T22:34:13.907Z,3.53
2022-09-22T22:36:41.194Z,6.57
2022-09-22T22:39:09.850Z,7.83
2022-09-22T22:41:36.603Z,3.97
2022-09-22T22:44:03.482Z,3.13
2022-09-22T22:46:30.053Z,3.27
2022-09-22T22:48:57.402Z,4.63
2022-09-22T22:51:24.371Z,3.40
2022-09-22T22:53:51.686Z,4.03
2022-09-22T22:56:20.111Z,3.50
2022-09-22T22:58:48.703Z,3.60
2022-09-22T23:01:23.888Z,3.40
2022-09-22T23:03:58.374Z,3.63
2022-09-22T23:06:27.241Z,3.53
2022-09-22T23:08:54.263Z,3.77
2022-09-22T23:11:23.553Z,3.60
2022-09-22T23:13:52.972Z,4.30
2022-09-22T23:16:23.643Z,6.00
2022-09-22T23:18:51.261Z,6.50
2022-09-22T23:21:19.818Z,3.53
2022-09-22T23:23:47.698Z,4.90
2022-09-22T23:26:15.596Z,5.10
2022-09-22T23:28:42.747Z,3.40
2022-09-22T23:31:11.813Z,5.33
2022-09-22T23:33:40.855Z,5.70
2022-09-22T23:36:09.038Z,4.60
2022-09-22T23:38:35.957Z,3.60
2022-09-22T23:41:03.646Z,5.63
2022-09-22T23:43:31.291Z,3.43
2022-09-22T23:45:58.554Z,3.97
2022-09-22T23:48:26.706Z,3.80
2022-09-22T23:50:54.284Z,4.90
2022-09-22T23:53:25.317Z,5.17
2022-09-22T23:55:51.653Z,4.57
2022-09-22T23:58:18.884Z,4.30
